Time;durP1;ratioP1;P1;durP2;ratioP2;P2;SDS_P1;SDS_P2;PMS_P1;PMS_P2;Temp;Humidity;BMP_temperature;BMP_pressure;BME280_temperature;BME280_humidity;BME280_pressure;Samples;Min_cycle;Max_cycle;Signal;HPM_P1;HPM_P2
2022/06/29 00:02:16;;;;;;;6.53;3.80;;;;;;;25.18;58.85;99849.59;4457555;32;32497;-90
2022/06/29 00:04:48;;;;;;;5.18;3.83;;;;;;;25.25;58.55;99848.78;4433019;32;32859;-90
2022/06/29 00:07:16;;;;;;;4.78;3.67;;;;;;;25.28;58.45;99848.47;4470645;32;33754;-90
2022/06/29 00:14:09;;;;;;;6.07;3.30;;;;;;;25.20;58.93;99840.31;4471506;32;35949;-89
2022/06/29 00:16:38;;;;;;;4.53;3.70;;;;;;;25.18;59.01;99833.41;4458891;32;33209;-89
2022/06/29 00:19:07;;;;;;;4.30;3.65;;;;;;;25.08;59.33;99841.63;4464717;32;33226;-89
2022/06/29 00:21:34;;;;;;;5.10;3.87;;;;;;;25.04;59.48;99837.50;4473366;32;34132;-89
2022/06/29 00:24:04;;;;;;;5.15;3.42;;;;;;;25.06;59.39;99838.16;4474576;32;32742;-88
2022/06/29 00:26:31;;;;;;;4.15;3.75;;;;;;;25.11;59.09;99841.28;4464488;32;33490;-89
2022/06/29 00:29:00;;;;;;;5.57;3.87;;;;;;;25.09;59.08;99843.31;4462389;32;33116;-90
2022/06/29 00:31:29;;;;;;;5.55;3.87;;;;;;;25.01;59.48;99835.09;4460677;32;33293;-89
2022/06/29 00:33:56;;;;;;;4.70;3.15;;;;;;;25.01;59.49;99829.69;4444569;32;32999;-89
2022/06/29 00:36:24;;;;;;;5.28;4.22;;;;;;;24.91;59.99;99827.09;4466569;32;33414;-89
2022/06/29 00:38:53;;;;;;;5.47;3.55;;;;;;;25.00;59.65;99811.81;4450640;32;32252;-88
2022/06/29 00:41:21;;;;;;;4.32;3.70;;;;;;;24.95;59.75;99808.72;4451693;32;34119;-89
2022/06/29 00:43:49;;;;;;;4.85;3.47;;;;;;;24.91;59.88;99818.16;4464257;32;33836;-88
2022/06/29 00:46:17;;;;;;;4.47;3.70;;;;;;;24.75;60.24;99808.94;4461935;32;33895;-88
2022/06/29 00:48:45;;;;;;;6.37;4.12;;;;;;;24.71;60.37;99809.41;4471952;32;33404;-89
2022/06/29 00:51:17;;;;;;;4.37;3.90;;;;;;;24.80;60.00;99808.47;4462922;32;32683;-89
2022/06/29 00:53:45;;;;;;;3.80;3.40;;;;;;;24.87;59.75;99808.66;4472589;32;34130;-89
2022/06/29 00:56:13;;;;;;;7.78;4.65;;;;;;;24.80;60.00;99816.56;4471869;32;32855;-90
2022/06/29 00:58:41;;;;;;;7.32;3.70;;;;;;;24.78;60.14;99808.63;4458953;32;33219;-89
2022/06/29 01:01:09;;;;;;;5.72;3.67;;;;;;;24.69;60.43;99811.44;4458587;32;32583;-89
2022/06/29 01:03:37;;;;;;;4.18;3.62;;;;;;;24.66;nan;99812.59;4472036;32;34326;-89
2022/06/29 01:06:06;;;;;;;3.87;3.58;;;;;;;24.65;60.72;99810.91;4485091;32;33950;-89
2022/06/29 01:08:34;;;;;;;4.10;3.70;;;;;;;24.67;60.52;99800.78;4471882;32;32686;-89
2022/06/29 01:11:03;;;;;;;4.28;3.72;;;;;;;24.42;61.26;99807.00;4471703;32;33162;-90
2022/06/29 01:13:31;;;;;;;5.00;3.53;;;;;;;24.21;61.83;99810.84;4448687;32;33409;-89
2022/06/29 01:15:59;;;;;;;5.03;3.62;;;;;;;24.48;60.91;99807.22;4456316;32;33561;-89
2022/06/29 01:18:26;;;;;;;4.37;3.85;;;;;;;24.34;61.22;99815.81;4443144;32;32196;-89
2022/06/29 01:20:55;;;;;;;4.00;3.47;;;;;;;24.24;61.26;99818.59;4455858;32;33543;-89
2022/06/29 01:23:23;;;;;;;9.23;3.20;;;;;;;24.24;61.16;99815.91;4443262;32;32734;-89
2022/06/29 01:25:50;;;;;;;3.83;3.42;;;;;;;24.35;60.77;99813.97;4449515;32;33014;-89
2022/06/29 01:28:18;;;;;;;5.22;3.50;;;;;;;24.19;61.26;99807.44;4461485;32;34007;-88
2022/06/29 01:30:46;;;;;;;5.10;3.87;;;;;;;24.15;61.51;99818.69;4465101;32;32547;-90
2022/06/29 01:33:14;;;;;;;4.40;3.47;;;;;;;23.85;62.56;99807.25;4476169;32;33974;-89
2022/06/29 01:35:41;;;;;;;6.18;4.03;;;;;;;24.01;62.07;99809.25;4464669;32;32961;-89
2022/06/29 01:38:09;;;;;;;4.65;3.40;;;;;;;24.10;61.71;99802.94;4460539;32;32177;-89
2022/06/29 01:40:37;;;;;;;3.53;3.20;;;;;;;24.13;61.68;99802.66;4462301;32;33137;-89
2022/06/29 01:43:06;;;;;;;4.00;3.60;;;;;;;24.09;61.85;99798.56;4460453;32;33563;-89
2022/06/29 01:45:34;;;;;;;6.12;4.05;;;;;;;24.17;61.60;99787.87;4464273;32;33655;-89
2022/06/29 01:48:02;;;;;;;4.45;3.37;;;;;;;23.97;62.33;99789.00;4451329;32;32340;-89
2022/06/29 01:50:30;;;;;;;3.70;3.40;;;;;;;24.07;62.08;99781.69;4449800;32;33472;-89
2022/06/29 01:53:00;;;;;;;4.37;3.80;;;;;;;24.14;61.76;99784.62;4450078;32;34234;-89
2022/06/29 01:55:27;;;;;;;4.03;3.65;;;;;;;24.13;61.58;99785.63;4467209;32;32971;-89
2022/06/29 01:57:55;;;;;;;5.20;3.78;;;;;;;24.05;61.64;99789.09;4464216;32;32688;-89
2022/06/29 02:00:23;;;;;;;4.85;3.83;;;;;;;24.06;61.48;99785.38;4453111;32;32588;-89
2022/06/29 02:02:51;;;;;;;4.28;3.80;;;;;;;23.95;61.84;99783.75;4466130;32;33869;-89
2022/06/29 02:05:20;;;;;;;4.90;3.67;;;;;;;23.95;61.87;99780.22;4456753;32;33002;-89
2022/06/29 02:07:47;;;;;;;4.28;3.87;;;;;;;23.93;62.00;99790.31;4475611;32;33335;-89
2022/06/29 02:10:15;;;;;;;4.78;4.30;;;;;;;23.98;61.78;99788.00;4463376;32;34000;-89
2022/06/29 02:12:43;;;;;;;4.97;4.35;;;;;;;24.00;61.72;99780.59;4449509;32;32769;-88
2022/06/29 02:15:11;;;;;;;4.50;3.95;;;;;;;23.99;61.90;99773.53;4463780;32;33867;-89
2022/06/29 02:17:38;;;;;;;5.35;4.07;;;;;;;23.83;62.51;99784.12;4452452;32;32637;-90
2022/06/29 02:20:07;;;;;;;4.07;3.65;;;;;;;23.93;62.12;99775.00;4449021;32;33489;-90
2022/06/29 02:22:35;;;;;;;5.22;3.33;;;;;;;23.84;62.41;99780.44;4451254;32;33297;-90
2022/06/29 02:25:06;;;;;;;6.12;3.35;;;;;;;23.88;62.18;99774.59;4452476;32;33666;-90
2022/06/29 02:27:42;;;;;;;4.43;4.03;;;;;;;24.04;61.44;99775.75;4461886;32;33748;-90
2022/06/29 02:30:10;;;;;;;4.47;3.85;;;;;;;23.92;61.88;99764.34;4452234;32;33624;-90
2022/06/29 02:35:28;;;;;;;4.97;3.80;;;;;;;23.80;62.43;99770.97;4472930;32;32806;-90
2022/06/29 02:37:57;;;;;;;4.95;3.72;;;;;;;23.81;62.27;99786.97;4450932;32;33620;-90
2022/06/29 02:40:25;;;;;;;8.35;3.87;;;;;;;23.58;63.16;99788.37;4450722;32;33203;-90
2022/06/29 02:42:54;;;;;;;6.32;3.65;;;;;;;23.68;62.67;99773.84;4466385;32;34403;-92
2022/06/29 02:45:37;;;;;;;7.68;3.72;;;;;;;23.59;62.95;99774.72;4362967;32;33668;-91
2022/06/29 02:48:19;;;;;;;8.52;3.65;;;;;;;23.56;63.04;99772.34;4407299;32;31959;-88
2022/06/29 02:50:47;;;;;;;6.35;4.10;;;;;;;23.63;62.75;99773.44;4370314;32;32506;-88
2022/06/29 02:53:15;;;;;;;4.18;3.87;;;;;;;23.65;62.76;99774.19;4403039;32;33097;-88
2022/06/29 02:55:42;;;;;;;4.05;3.75;;;;;;;23.64;62.86;99777.88;4379701;32;33351;-88
2022/06/29 02:58:10;;;;;;;6.43;3.75;;;;;;;23.43;63.64;99770.00;4397722;32;33448;-88
2022/06/29 03:00:38;;;;;;;5.22;3.75;;;;;;;23.68;62.76;99771.16;4394206;32;32906;-88
2022/06/29 03:03:06;;;;;;;3.97;3.67;;;;;;;23.61;62.98;99770.06;4393266;32;33600;-90
2022/06/29 03:05:38;;;;;;;7.40;4.40;;;;;;;23.45;63.65;99775.25;4392852;32;33358;-89
2022/06/29 03:08:05;;;;;;;4.28;3.83;;;;;;;23.41;63.86;99779.25;4383104;32;32243;-89
2022/06/29 03:10:33;;;;;;;4.68;3.50;;;;;;;23.54;63.40;99779.72;4393967;32;32768;-89
2022/06/29 03:13:01;;;;;;;8.00;4.22;;;;;;;23.41;64.04;99776.56;4393299;32;33007;-91
2022/06/29 03:15:51;;;;;;;6.87;4.15;;;;;;;23.56;63.51;99779.59;4397744;32;32590;-90
2022/06/29 03:18:20;;;;;;;6.53;4.55;;;;;;;23.56;63.60;99782.28;4395678;32;32414;-89
2022/06/29 03:20:48;;;;;;;5.55;4.28;;;;;;;23.55;63.72;99781.44;4383114;32;33244;-90
2022/06/29 03:23:18;;;;;;;5.22;3.92;;;;;;;23.40;64.26;99789.16;4395840;32;32997;-89
2022/06/29 03:25:46;;;;;;;7.00;3.80;;;;;;;23.47;64.18;99774.09;4396234;32;34125;-90
2022/06/29 03:28:16;;;;;;;5.25;3.67;;;;;;;23.45;64.37;99775.25;4383519;32;32143;-88
2022/06/29 03:30:44;;;;;;;9.32;4.43;;;;;;;23.57;63.99;99779.44;4383163;32;33771;-88
2022/06/29 03:33:13;;;;;;;5.05;4.15;;;;;;;23.54;64.21;99781.56;4383113;32;33806;-88
2022/06/29 03:35:43;;;;;;;6.68;3.90;;;;;;;23.34;65.06;99797.00;4395706;32;33410;-89
2022/06/29 03:38:11;;;;;;;5.50;4.15;;;;;;;23.35;65.06;99787.91;4383394;32;33363;-89
2022/06/29 03:40:39;;;;;;;10.00;4.82;;;;;;;23.40;65.02;99788.31;4382890;32;33295;-88
2022/06/29 03:43:07;;;;;;;7.57;4.47;;;;;;;23.22;64.88;99783.75;4370479;32;33379;-87
2022/06/29 03:45:34;;;;;;;4.60;4.20;;;;;;;23.34;64.65;99794.31;4382568;32;33201;-87
2022/06/29 03:48:03;;;;;;;6.37;4.87;;;;;;;23.54;63.93;99790.50;4406086;32;32746;-87
2022/06/29 03:50:31;;;;;;;4.62;4.22;;;;;;;23.61;63.74;99791.62;4382453;32;33925;-87
2022/06/29 03:53:01;;;;;;;8.30;4.68;;;;;;;23.92;61.99;99784.06;4395391;32;33969;-88
2022/06/29 03:55:30;;;;;;;7.78;4.93;;;;;;;23.89;62.57;99794.31;4407897;32;33088;-87
2022/06/29 03:57:57;;;;;;;7.32;4.40;;;;;;;24.06;61.65;99785.38;4395173;32;33081;-87
2022/06/29 04:00:26;;;;;;;4.18;3.85;;;;;;;24.24;60.76;99783.53;4395193;32;32952;-88
2022/06/29 04:02:55;;;;;;;5.87;4.68;;;;;;;24.39;60.19;99780.31;4407374;32;33432;-88
2022/06/29 04:05:23;;;;;;;9.05;4.35;;;;;;;24.49;59.83;99775.66;4382459;32;33223;-87
2022/06/29 04:07:50;;;;;;;5.62;4.03;;;;;;;24.49;59.62;99767.56;4382566;32;33512;-88
2022/06/29 04:10:22;;;;;;;6.18;4.93;;;;;;;24.48;58.97;99772.13;4395847;32;33486;-87
2022/06/29 04:12:50;;;;;;;6.05;4.85;;;;;;;24.69;58.37;99777.19;4382019;32;32897;-89
2022/06/29 04:15:21;;;;;;;7.55;4.25;;;;;;;25.19;57.00;99779.19;4394476;32;32963;-89
2022/06/29 04:17:50;;;;;;;4.65;4.00;;;;;;;25.00;58.06;99773.97;4382444;32;33221;-89
2022/06/29 04:23:05;;;;;;;5.37;4.45;;;;;;;25.31;56.54;99776.22;4384341;32;32982;-89
2022/06/29 04:25:33;;;;;;;9.73;4.35;;;;;;;25.36;56.45;99777.41;4375956;32;32729;-88
2022/06/29 04:28:01;;;;;;;5.90;3.97;;;;;;;25.52;56.04;99774.75;4394966;32;32435;-89
2022/06/29 04:30:29;;;;;;;4.70;3.90;;;;;;;25.67;55.45;99780.37;4394697;32;33298;-89
2022/06/29 04:32:57;;;;;;;7.57;5.30;;;;;;;25.98;53.86;99774.41;4394259;32;34232;-88
2022/06/29 04:35:25;;;;;;;8.35;4.45;;;;;;;25.82;54.45;99782.47;4381666;32;32726;-88
2022/06/29 04:37:53;;;;;;;7.97;5.40;;;;;;;25.97;54.16;99780.81;4369435;32;32902;-88
2022/06/29 04:40:21;;;;;;;6.15;3.92;;;;;;;26.14;53.65;99774.41;4418873;32;34525;-88
2022/06/29 04:42:49;;;;;;;6.43;4.78;;;;;;;26.12;54.57;99784.59;4394287;32;33828;-88
2022/06/29 04:48:05;;;;;;;7.72;4.50;;;;;;;26.42;53.30;99784.94;4409135;32;32494;-87
2022/06/29 04:50:34;;;;;;;6.22;4.05;;;;;;;26.42;52.52;99783.06;4419185;32;33300;-90
2022/06/29 04:53:02;;;;;;;4.95;4.47;;;;;;;26.37;53.42;99781.88;4409308;32;33355;-89
2022/06/29 04:55:31;;;;;;;5.00;4.50;;;;;;;26.39;52.59;99780.69;4421553;32;33122;-89
2022/06/29 04:58:01;;;;;;;5.60;3.78;;;;;;;26.57;52.42;99785.13;4396998;32;32987;-88
2022/06/29 05:00:29;;;;;;;6.85;5.55;;;;;;;26.61;52.41;99787.31;4406779;32;33406;-88
2022/06/29 05:02:59;;;;;;;6.35;4.57;;;;;;;26.72;51.78;99788.81;4408751;32;33095;-87
2022/06/29 05:05:27;;;;;;;8.25;4.57;;;;;;;26.53;51.96;99785.44;4408812;32;33412;-91
2022/06/29 05:07:56;;;;;;;5.72;5.03;;;;;;;26.89;51.74;99784.25;4396060;32;33373;-89
2022/06/29 05:10:24;;;;;;;8.20;5.03;;;;;;;27.31;50.95;99782.09;4401701;32;33573;-88
2022/06/29 05:12:54;;;;;;;6.82;4.12;;;;;;;27.34;50.51;99774.63;4421019;32;33883;-87
2022/06/29 05:15:24;;;;;;;8.63;4.67;;;;;;;27.52;49.61;99781.50;4421476;32;32821;-88
2022/06/29 05:17:52;;;;;;;9.95;4.62;;;;;;;27.67;50.31;99781.59;4395554;32;32634;-87
2022/06/29 05:20:21;;;;;;;8.93;4.35;;;;;;;27.57;49.64;99794.53;4395377;32;32778;-89
2022/06/29 05:22:50;;;;;;;6.75;4.22;;;;;;;27.63;48.98;99801.09;4420845;32;33002;-87
2022/06/29 05:25:19;;;;;;;9.02;4.20;;;;;;;27.35;49.82;99798.00;4395409;32;33010;-87
2022/06/29 05:27:51;;;;;;;4.72;3.80;;;;;;;27.59;49.54;99797.09;4395411;32;33468;-88
2022/06/29 05:30:21;;;;;;;4.93;3.75;;;;;;;27.80;48.08;99784.59;4407814;32;32952;-87
2022/06/29 05:32:49;;;;;;;4.70;4.25;;;;;;;27.75;48.86;99778.88;4420234;32;33962;-88
2022/06/29 05:35:17;;;;;;;5.87;4.50;;;;;;;27.78;48.77;99785.81;4413514;32;33631;-88
2022/06/29 05:37:46;;;;;;;7.20;4.12;;;;;;;28.23;47.38;99785.00;4395866;32;33358;-87
2022/06/29 05:40:13;;;;;;;7.12;4.40;;;;;;;28.30;47.84;99785.97;4413958;32;33235;-88
2022/06/29 05:42:41;;;;;;;7.90;4.87;;;;;;;28.28;46.81;99781.75;4427413;32;33655;-87
2022/06/29 05:47:45;;;;;;;7.78;4.20;;;;;;;28.57;47.03;99767.44;4395487;32;33667;-87
2022/06/29 05:50:14;;;;;;;8.38;4.47;;;;;;;28.28;47.25;99766.28;4407450;32;33354;-87
2022/06/29 05:52:49;;;;;;;8.70;4.10;;;;;;;28.29;45.82;99767.97;4405490;32;33972;-88
2022/06/29 05:55:19;;;;;;;5.65;3.80;;;;;;;28.36;46.92;99776.28;4400049;32;33590;-87
2022/06/29 05:57:47;;;;;;;4.82;4.43;;;;;;;28.31;46.61;99765.94;4395172;32;33386;-87
2022/06/29 06:00:15;;;;;;;7.85;4.90;;;;;;;28.13;46.25;99761.84;4406660;32;34441;-88
2022/06/29 06:02:52;;;;;;;5.18;4.05;;;;;;;28.44;45.46;99759.06;4412487;32;32719;-88
2022/06/29 06:05:20;;;;;;;4.45;3.70;;;;;;;28.41;46.56;99763.00;4406839;32;33724;-88
2022/06/29 06:07:50;;;;;;;7.03;4.53;;;;;;;28.68;45.68;99755.31;4404369;32;33143;-88
2022/06/29 06:10:18;;;;;;;5.30;4.40;;;;;;;28.47;46.70;99748.69;4424930;32;34520;-87
2022/06/29 06:12:47;;;;;;;8.05;4.10;;;;;;;28.69;45.28;99757.81;4390192;32;35145;-87
2022/06/29 06:15:19;;;;;;;5.45;4.60;;;;;;;28.94;45.21;99750.25;4413713;32;32950;-87
2022/06/29 06:17:47;;;;;;;6.07;4.53;;;;;;;29.32;45.24;99755.59;4406468;32;33166;-88
2022/06/29 06:20:17;;;;;;;7.37;4.12;;;;;;;29.33;44.25;99749.13;4406461;32;34319;-87
2022/06/29 06:22:46;;;;;;;8.25;4.70;;;;;;;29.05;44.56;99746.25;4406557;32;34273;-87
2022/06/29 06:25:16;;;;;;;8.02;4.60;;;;;;;29.25;45.17;99749.25;4406768;32;33420;-88
2022/06/29 06:27:45;;;;;;;11.80;4.50;;;;;;;29.29;45.40;99758.69;4407232;32;33523;-87
2022/06/29 06:30:15;;;;;;;7.07;4.72;;;;;;;29.21;45.06;99756.94;4412658;32;32701;-88
2022/06/29 06:32:44;;;;;;;8.38;4.40;;;;;;;29.28;44.94;99757.84;4407605;32;35338;-88
2022/06/29 06:35:13;;;;;;;9.90;5.00;;;;;;;29.12;45.19;99758.06;4409359;32;33915;-88
2022/06/29 06:37:43;;;;;;;5.43;4.65;;;;;;;29.48;44.47;99747.25;4416252;32;32642;-88
2022/06/29 06:43:04;;;;;;;8.52;4.70;;;;;;;29.55;44.07;99758.25;4416075;32;32555;-88
2022/06/29 06:45:33;;;;;;;5.97;4.60;;;;;;;29.64;43.70;99754.38;4409122;32;32014;-88
2022/06/29 06:48:04;;;;;;;5.30;4.80;;;;;;;29.50;44.43;99747.91;4438807;32;33511;-87
2022/06/29 06:50:35;;;;;;;8.32;4.82;;;;;;;29.59;43.37;99741.34;4409559;32;33573;-88
2022/06/29 06:53:04;;;;;;;10.32;5.22;;;;;;;29.74;43.76;99741.28;4409538;32;33137;-87
2022/06/29 06:55:34;;;;;;;5.75;4.28;;;;;;;29.92;43.04;99742.75;4420139;32;33359;-87
2022/06/29 06:58:02;;;;;;;9.85;4.85;;;;;;;30.19;42.65;99736.53;4406709;32;33550;-88
2022/06/29 07:00:31;;;;;;;10.43;4.80;;;;;;;30.14;42.59;99740.88;4411639;32;33095;-88
2022/06/29 07:03:01;;;;;;;6.72;5.07;;;;;;;30.41;42.42;99731.06;4405298;32;33345;-87
2022/06/29 07:05:29;;;;;;;7.85;5.05;;;;;;;30.49;41.02;99729.06;4397116;32;34365;-87
2022/06/29 07:07:57;;;;;;;8.00;4.05;;;;;;;30.40;42.27;99737.56;4407429;32;32437;-86
2022/06/29 07:10:25;;;;;;;7.60;5.00;;;;;;;30.84;42.31;99727.22;4388496;32;33455;-86
2022/06/29 07:12:54;;;;;;;6.18;4.55;;;;;;;30.77;40.70;99720.91;4433237;32;33623;-87
2022/06/29 07:15:23;;;;;;;7.62;4.60;;;;;;;30.80;42.14;99715.03;4399382;32;33953;-83
2022/06/29 07:17:52;;;;;;;7.93;4.05;;;;;;;30.67;41.53;99720.38;4397584;32;32747;-85
2022/06/29 07:20:20;;;;;;;8.48;4.60;;;;;;;30.98;40.67;99711.78;4418704;32;33074;-85
2022/06/29 07:22:49;;;;;;;7.37;4.12;;;;;;;30.82;42.45;99717.59;4408309;32;33673;-85
2022/06/29 07:25:19;;;;;;;7.53;4.20;;;;;;;30.99;40.61;99709.91;4398931;32;33758;-84
2022/06/29 07:27:50;;;;;;;5.40;4.37;;;;;;;31.43;39.98;99716.84;4409564;32;32808;-83
2022/06/29 07:30:20;;;;;;;5.00;4.25;;;;;;;31.18;41.32;99711.03;4407575;32;32788;-85
2022/06/29 07:32:49;;;;;;;11.55;4.85;;;;;;;31.57;40.47;99718.56;4418870;32;34671;-85
2022/06/29 07:35:25;;;;;;;7.25;4.18;;;;;;;31.51;40.10;99711.22;4409882;32;34281;-86
2022/06/29 07:37:59;;;;;;;5.82;4.53;;;;;;;31.82;39.68;99714.28;4408446;32;33732;-84
2022/06/29 07:40:28;;;;;;;;;;;;;;;31.80;39.85;99713.59;4420701;32;33461;-84
2022/06/29 07:42:57;;;;;;;12.00;4.60;;;;;;;31.63;38.99;99717.78;4409739;32;34292;-84
2022/06/29 07:45:24;;;;;;;9.05;5.25;;;;;;;32.06;38.90;99710.09;4419674;32;33462;-84
2022/06/29 07:47:57;;;;;;;6.53;4.65;;;;;;;31.80;38.99;99705.41;4408536;32;33360;-83
2022/06/29 07:50:27;;;;;;;7.37;4.85;;;;;;;31.74;38.88;99706.25;4396533;32;32747;-84
2022/06/29 07:52:57;;;;;;;7.70;4.78;;;;;;;32.12;38.15;99708.44;4395158;32;32544;-84
2022/06/29 07:55:27;;;;;;;5.70;4.65;;;;;;;31.97;39.42;99711.34;4393065;32;32944;-84
2022/06/29 07:57:56;;;;;;;8.13;4.53;;;;;;;31.97;37.98;99710.53;4395651;32;31990;-84
2022/06/29 08:00:26;;;;;;;8.88;4.43;;;;;;;32.02;37.71;99702.53;4406182;32;34243;-84
2022/06/29 08:02:56;;;;;;;8.52;4.82;;;;;;;31.96;38.08;99706.13;4409114;32;33957;-84
2022/06/29 08:05:24;;;;;;;7.70;4.43;;;;;;;32.08;37.46;99701.69;4417800;32;33638;-84
2022/06/29 08:07:57;;;;;;;6.07;4.55;;;;;;;32.24;37.85;99703.19;4420450;32;34230;-84
2022/06/29 08:10:28;;;;;;;9.45;4.70;;;;;;;32.51;37.48;99693.09;4396971;32;33187;-84
2022/06/29 08:13:03;;;;;;;8.80;4.40;;;;;;;32.27;38.73;99700.88;4406458;32;34654;-84
2022/06/29 08:15:33;;;;;;;7.82;4.25;;;;;;;32.64;37.81;99701.28;4393911;32;32775;-84
2022/06/29 08:18:02;;;;;;;6.93;4.82;;;;;;;32.50;36.41;99695.00;4378290;32;33400;-85
2022/06/29 08:20:30;;;;;;;5.00;3.75;;;;;;;32.76;35.60;99710.53;4416886;32;34180;-84
2022/06/29 08:23:00;;;;;;;11.07;3.55;;;;;;;32.67;37.75;99711.81;4417469;32;33902;-86
2022/06/29 08:25:31;;;;;;;4.78;4.03;;;;;;;33.19;35.02;99700.94;4405559;32;35218;-85
2022/06/29 08:28:01;;;;;;;5.57;3.87;;;;;;;33.00;35.00;99708.19;4398748;32;32676;-84
2022/06/29 08:30:36;;;;;;;5.45;4.35;;;;;;;33.06;35.21;99688.19;4411844;32;33502;-83
2022/06/29 08:33:13;;;;;;;5.60;4.10;;;;;;;33.06;34.50;99688.19;4417953;32;33552;-84
2022/06/29 08:35:42;;;;;;;4.47;3.90;;;;;;;32.93;35.29;99694.53;4408552;32;32889;-85
2022/06/29 08:38:11;;;;;;;7.93;4.40;;;;;;;33.08;35.12;99686.06;4407503;32;33274;-84
2022/06/29 08:40:46;;;;;;;7.57;4.35;;;;;;;33.43;33.92;99678.38;4410727;32;32628;-85
2022/06/29 08:43:18;;;;;;;9.18;3.97;;;;;;;33.44;35.49;99677.31;4422211;32;34666;-86
2022/06/29 08:45:48;;;;;;;4.03;3.65;;;;;;;33.51;35.09;99674.53;4391602;32;32494;-87
2022/06/29 08:48:24;;;;;;;5.50;3.50;;;;;;;33.28;33.21;99681.37;4405260;32;32839;-86
2022/06/29 08:50:54;;;;;;;5.20;3.90;;;;;;;33.60;34.73;99684.16;4421833;32;33526;-85
2022/06/29 08:53:29;;;;;;;5.78;4.53;;;;;;;33.56;34.59;99682.91;4400005;32;31973;-87
2022/06/29 08:56:04;;;;;;;9.77;4.60;;;;;;;34.12;33.66;99682.13;4418791;32;33525;-85
2022/06/29 08:58:33;;;;;;;4.85;3.87;;;;;;;34.16;32.19;99685.28;4393022;32;32276;-84
2022/06/29 09:01:10;;;;;;;8.80;4.60;;;;;;;34.34;32.10;99680.69;4420623;32;33606;-86
2022/06/29 09:03:40;;;;;;;4.37;3.95;;;;;;;34.69;31.41;99674.69;4406820;32;32888;-85
2022/06/29 09:06:09;;;;;;;3.30;2.72;;;;;;;34.18;30.94;99681.25;4408254;32;33457;-84
2022/06/29 09:08:38;;;;;;;3.95;2.92;;;;;;;34.35;30.72;99676.88;4405376;32;32813;-83
2022/06/29 09:11:28;;;;;;;3.53;2.95;;;;;;;34.37;30.63;99668.44;4414440;32;188147;-85
2022/06/29 09:14:18;;;;;;;6.37;2.87;;;;;;;34.65;30.06;99682.50;4394305;32;31977;-87
2022/06/29 09:16:54;;;;;;;9.07;3.15;;;;;;;35.38;27.94;99665.22;4407155;32;33954;-85
2022/06/29 09:19:27;;;;;;;6.00;3.25;;;;;;;35.21;29.25;99669.66;4421353;32;32570;-85
2022/06/29 09:21:58;;;;;;;7.80;2.40;;;;;;;35.12;29.01;99665.56;4406396;32;34639;-84
2022/06/29 09:24:35;;;;;;;2.62;2.42;;;;;;;35.29;29.44;99661.12;4408951;32;33460;-84
2022/06/29 09:27:25;;;;;;;6.60;3.10;;;;;;;35.31;30.04;99669.97;4395345;32;33133;-88
2022/06/29 09:29:58;;;;;;;7.72;3.53;;;;;;;35.50;28.12;99651.56;4384884;32;31384;-85
2022/06/29 09:32:31;;;;;;;8.40;3.53;;;;;;;35.49;27.99;99665.53;4417959;32;33520;-84
2022/06/29 09:34:59;;;;;;;4.30;3.30;;;;;;;35.48;28.32;99658.37;4394262;32;33206;-84
2022/06/29 09:37:30;;;;;;;4.07;3.00;;;;;;;35.63;29.92;99653.28;4395540;32;32802;-85
2022/06/29 09:40:05;;;;;;;12.18;3.40;;;;;;;35.80;27.77;99657.06;4394396;32;32144;-85
2022/06/29 09:42:36;;;;;;;3.05;2.75;;;;;;;35.77;27.16;99656.69;4401941;32;34651;-84
2022/06/29 09:45:07;;;;;;;2.92;2.45;;;;;;;35.71;28.88;99647.47;4421071;32;33682;-85
2022/06/29 09:47:39;;;;;;;7.37;3.40;;;;;;;35.83;28.16;99645.56;4405345;32;33595;-85
2022/06/29 09:50:08;;;;;;;4.97;2.92;;;;;;;36.11;27.57;99644.09;4415212;32;32902;-84
2022/06/29 09:52:39;;;;;;;5.43;3.05;;;;;;;36.16;27.46;99638.72;4415109;32;33568;-85
2022/06/29 09:55:08;;;;;;;5.37;2.90;;;;;;;36.57;29.02;99647.97;4408322;32;34559;-89
2022/06/29 09:57:38;;;;;;;4.32;3.20;;;;;;;36.48;28.56;99641.16;4409351;32;31834;-91
2022/06/29 10:03:07;;;;;;;5.65;3.05;;;;;;;36.40;28.62;99634.06;4408453;32;33693;-88
2022/06/29 10:05:59;;;;;;;2.80;2.60;;;;;;;36.26;27.45;99632.63;4408619;32;33430;-88
2022/06/29 10:08:36;;;;;;;2.92;2.72;;;;;;;36.81;27.02;99624.84;4425497;32;34379;-88
2022/06/29 10:14:02;;;;;;;3.20;2.53;;;;;;;36.18;27.39;99622.84;4411681;32;33960;-88
2022/06/29 10:16:48;;;;;;;5.37;2.20;;;;;;;35.72;25.75;99629.91;4408578;32;33522;-89
2022/06/29 10:19:36;;;;;;;4.07;2.78;;;;;;;36.27;25.41;99617.81;4396540;32;35462;-89
2022/06/29 10:22:04;;;;;;;;;;;;;;;36.24;26.70;99618.31;4416048;32;32582;-89
2022/06/29 10:24:37;;;;;;;4.68;2.70;;;;;;;36.21;25.19;99616.84;4393942;32;32960;-88
2022/06/29 10:27:07;;;;;;;4.47;2.40;;;;;;;36.37;26.46;99621.66;4421089;32;33262;-88
2022/06/29 10:29:43;;;;;;;3.28;2.97;;;;;;;36.17;25.63;99604.66;4393007;32;34384;-88
2022/06/29 10:32:12;;;;;;;3.55;2.92;;;;;;;36.56;26.79;99599.53;4403412;32;32987;-88
2022/06/29 10:35:06;;;;;;;2.47;2.20;;;;;;;37.06;25.39;99590.69;4407406;32;33550;-87
2022/06/29 10:37:30;;;;;;;5.78;2.42;;;;;;;37.04;24.33;99590.94;4410444;32;35321;-88
2022/06/29 10:43:07;;;;;;;4.03;2.70;;;;;;;37.35;25.16;99586.84;4420268;32;33706;-89
2022/06/29 10:45:37;;;;;;;7.22;3.20;;;;;;;37.69;24.81;99584.16;4410292;32;33798;-89
2022/06/29 10:48:12;;;;;;;5.93;3.28;;;;;;;37.11;26.81;99585.28;4404083;32;32563;-89
2022/06/29 10:50:43;;;;;;;4.47;3.22;;;;;;;37.63;24.19;99574.97;4421887;32;33506;-88
2022/06/29 10:53:17;;;;;;;5.78;3.00;;;;;;;37.38;25.45;99569.88;4416880;32;34547;-88
2022/06/29 10:55:54;;;;;;;9.50;3.35;;;;;;;37.45;26.36;99571.63;4398375;32;33313;-88
2022/06/29 10:58:29;;;;;;;4.53;2.60;;;;;;;37.13;25.87;99572.13;4408114;32;33432;-89
2022/06/29 11:00:58;;;;;;;3.62;2.92;;;;;;;37.32;24.43;99562.56;4419432;32;34237;-88
2022/06/29 11:03:37;;;;;;;6.70;3.40;;;;;;;37.59;25.50;99567.47;4421841;32;31465;-88
2022/06/29 11:12:02;;;;;;;3.37;2.70;;;;;;;37.94;22.82;99556.22;4417211;32;33662;-88
2022/06/29 11:20:21;;;;;;;3.50;2.85;;;;;;;37.90;24.31;99549.56;4419970;32;33357;-89
2022/06/29 11:22:52;;;;;;;11.55;3.22;;;;;;;38.27;23.20;99538.81;4398638;32;33539;-89
2022/06/29 11:25:20;;;;;;;3.95;2.67;;;;;;;38.06;24.36;99536.81;4393929;32;32905;-88
2022/06/29 11:27:48;;;;;;;4.43;2.47;;;;;;;38.26;24.64;99531.59;4430925;32;32531;-88
2022/06/29 11:30:22;;;;;;;4.50;2.80;;;;;;;38.09;24.32;99536.31;4408504;32;34254;-88
2022/06/29 11:32:58;;;;;;;3.15;2.72;;;;;;;38.34;23.25;99524.84;4407302;32;33750;-88
2022/06/29 11:35:30;;;;;;;6.05;2.35;;;;;;;37.92;22.74;99525.31;4405820;32;34049;-88
2022/06/29 11:38:01;;;;;;;3.95;2.53;;;;;;;38.29;23.62;99511.78;4419988;32;32897;-88
2022/06/29 11:40:42;;;;;;;3.28;2.75;;;;;;;38.27;22.46;99522.25;4408330;32;33101;-88
2022/06/29 11:43:15;;;;;;;7.05;3.33;;;;;;;37.99;23.22;99519.66;4399133;32;34240;-88
2022/06/29 11:45:46;;;;;;;4.00;2.80;;;;;;;38.17;23.27;99511.06;4418393;32;32458;-88
2022/06/29 11:48:17;;;;;;;2.67;2.40;;;;;;;38.12;22.76;99505.47;4409435;32;33277;-88
2022/06/29 11:50:56;;;;;;;3.58;2.55;;;;;;;38.12;25.48;99503.56;4394592;32;34466;-88
2022/06/29 11:53:39;;;;;;;3.40;2.83;;;;;;;38.00;23.91;99504.78;4432146;32;33618;-88
2022/06/29 11:56:19;;;;;;;2.65;2.40;;;;;;;38.30;21.91;99499.69;4406808;32;33283;-88
2022/06/29 11:58:52;;;;;;;5.60;2.50;;;;;;;38.25;22.51;99496.84;4404397;32;31997;-88
2022/06/29 12:01:26;;;;;;;7.87;2.92;;;;;;;38.18;24.03;99501.72;4392977;32;33676;-89
2022/06/29 12:04:02;;;;;;;5.45;3.12;;;;;;;38.36;23.44;99487.66;4420004;32;32943;-88
2022/06/29 12:06:37;;;;;;;4.57;2.55;;;;;;;38.46;23.39;99480.56;4405174;32;32686;-89
2022/06/29 12:09:19;;;;;;;3.85;2.03;;;;;;;38.61;21.96;99486.28;4404548;32;33258;-89
2022/06/29 12:11:52;;;;;;;2.72;2.53;;;;;;;38.42;24.47;99475.59;4417198;32;33050;-88
2022/06/29 12:14:20;;;;;;;4.05;2.17;;;;;;;37.78;23.42;99480.72;4414155;32;33685;-89
2022/06/29 12:16:52;;;;;;;4.87;2.50;;;;;;;37.94;22.50;99478.22;4380189;32;32433;-89
2022/06/29 12:19:28;;;;;;;4.47;1.92;;;;;;;38.73;22.85;99459.37;4387819;32;33650;-89
2022/06/29 12:22:00;;;;;;;11.20;2.70;;;;;;;38.82;23.16;99457.00;4392840;32;32976;-89
2022/06/29 12:24:30;;;;;;;4.78;3.22;;;;;;;38.77;22.61;99455.03;4406375;32;33507;-89
2022/06/29 12:27:13;;;;;;;2.80;2.55;;;;;;;38.67;22.65;99460.41;4406958;32;31960;-89
2022/06/29 12:29:43;;;;;;;4.87;2.67;;;;;;;38.58;23.02;99454.53;4405924;32;33186;-89